Shenandoah, Ohio
Current Conditions -  °F | °C
As of 9:52 AM on Friday 19 Dec 2014 (Local Time) from KMFD Reporting Station
Haze Haze  
Wind Chill: 23°   Ceiling: 700
Heat Index: 28°   Visibility: 4mi
Dew Point: 26°   Wind: 5mph
Humidity: 92%   Direction: 300°WNW
Pressure: 30.22"   Gusts: NA
Location:  41.0314°N, 82.4861°W
Report Text: KMFD 191452Z 30004KT 4SM BR OVC007 M02/M03 A3022 RMK AO2 SLP250 T10221033 51007
Loading
Personal Weather Stations






























Interactive Weather Map New forecast layout! Learn more

10-Day Weather Forecast

Advertisements
Track Severe Weather on mobile